« 茸狩 福井空港 2001/6/16 sat | トップページ | 小牧基地オープンベース【フライト編】 名古屋飛行場 2019/3/2 sat »

2019/03/02

小牧基地オープンベース【B.I.編】 名古屋飛行場 2019/3/2 sat

今年度最後のブルーインパルス展示飛行は、小牧基地オープンベース。

METAR RJNA 020300Z 34006KT 300V040 9999 FEW030 SCT230 14/M08 Q1017
RMK 1CU030 A3006

20190302_rjna_bi00

ブルー列線前は、朝から混んでます

METAR RJNA 020400Z 35008KT 320V030 9999 FEW030 15/M10 Q1016 RMK
1CU030 A3002

20190302_rjna_bi01

13時半ごろ タクシーアウト

20190302_rjna_bi02

RW36エンドでモクモク

20190302_rjna_bi03

#1 26-5805 #2 26-5692

20190302_rjna_bi04

#3 06-5790 #4 06-5787

20190302_rjna_bi05

#5 26-5690 #6 16-5666

20190302_rjna_bi06

2機編隊の連続離陸から空中集合

20190302_rjna_bi07

20190302_rjna_bi08

20190302_rjna_bi09

20190302_rjna_bi10

20190302_rjna_bi11

デルタ・ダーティー・ローパス

20190302_rjna_bi12

20190302_rjna_bi13

リーダーズ・ベネフィット・ローパス

20190302_rjna_bi14

20190302_rjna_bi15

ポイント・スター・ローパス

20190302_rjna_bi16

20190302_rjna_bi17

ピラミッド・ローパス

20190302_rjna_bi18

20190302_rjna_bi19

20190302_rjna_bi20

20190302_rjna_bi21

スラント・キューピッド

20190302_rjna_bi22

20190302_rjna_bi23

20190302_rjna_bi25

ダイアモンド?

20190302_rjna_bi26

シングル・クローバーリーフ・ターン

20190302_rjna_bi27

20190302_rjna_bi28

20190302_rjna_bi29

30

20190302_rjna_bi30

デルタ・スリー・シックスティ・ターン

20190302_rjna_bi31

20190302_rjna_bi22_2

フェニックス・ローパス

20190302_rjna_bi33

20190302_rjna_bi34

20190302_rjna_bi35

20190302_rjna_bi36

20190302_rjna_bi37

サクラ

METAR RJNA 020500Z 31004KT 240V020 9999 FEW030 SCT230 15/M10 Q1016
RMK 1CU030 A3001

20190302_rjna_bi38

20190302_rjna_bi39

20190302_rjna_bi40

20190302_rjna_bi41

20190302_rjna_bi42

20190302_rjna_bi43

20190302_rjna_bi44

20190302_rjna_bi45

20190302_rjna_bi46

20190302_rjna_bi47

卒業の方、お疲れ様でした。

#1 26-5805
#2 26-5692
#3 06-5790
#4 06-5787
#5 26-5690
#6 16-5666
#7 66-5745

|

« 茸狩 福井空港 2001/6/16 sat | トップページ | 小牧基地オープンベース【フライト編】 名古屋飛行場 2019/3/2 sat »

BI」カテゴリの記事

名古屋飛行場」カテゴリの記事

コメント

コメントを書く



(ウェブ上には掲載しません)


コメントは記事投稿者が公開するまで表示されません。



トラックバック


この記事へのトラックバック一覧です: 小牧基地オープンベース【B.I.編】 名古屋飛行場 2019/3/2 sat:

« 茸狩 福井空港 2001/6/16 sat | トップページ | 小牧基地オープンベース【フライト編】 名古屋飛行場 2019/3/2 sat »